Time;durP1;ratioP1;P1;durP2;ratioP2;P2;SDS_P1;SDS_P2;PMS_P1;PMS_P2;Temp;Humidity;BMP_temperature;BMP_pressure;BME280_temperature;BME280_humidity;BME280_pressure;Samples;Min_cycle;Max_cycle;Signal;HPM_P1;HPM_P2
2023/10/20 00:00:05;;;;;;;2.78;2.38;;;;;;;10.45;100.00;93391.84;1026527;28;20057;-73
2023/10/20 00:00:36;;;;;;;4.70;3.17;;;;;;;10.44;100.00;93386.91;1027160;28;20042;-72
2023/10/20 00:01:06;;;;;;;2.50;2.30;;;;;;;10.47;100.00;93389.66;1023424;29;20282;-73
2023/10/20 00:01:37;;;;;;;3.60;3.30;;;;;;;10.45;100.00;93386.59;1020419;29;20417;-72
2023/10/20 00:02:08;;;;;;;2.10;1.90;;;;;;;10.48;100.00;93390.44;1019266;29;20023;-72
2023/10/20 00:02:38;;;;;;;2.72;2.53;;;;;;;10.35;100.00;93366.00;1023165;29;20047;-72
2023/10/20 00:03:09;;;;;;;3.10;1.88;;;;;;;10.45;100.00;93378.72;1020916;28;20035;-72
2023/10/20 00:03:39;;;;;;;2.28;2.17;;;;;;;10.48;100.00;93385.94;1023257;29;20035;-72
2023/10/20 00:04:09;;;;;;;1.25;1.25;;;;;;;10.48;100.00;93383.34;1023202;29;20373;-73
2023/10/20 00:04:40;;;;;;;5.03;2.92;;;;;;;10.47;100.00;93379.19;1022994;29;20035;-73
2023/10/20 00:05:11;;;;;;;1.85;1.73;;;;;;;10.47;100.00;93370.56;1023416;28;20035;-73
2023/10/20 00:05:41;;;;;;;2.88;1.98;;;;;;;10.48;100.00;93370.22;1023095;29;20055;-73
2023/10/20 00:06:12;;;;;;;2.90;2.67;;;;;;;10.47;100.00;93371.31;1017770;29;20047;-72
2023/10/20 00:06:42;;;;;;;9.02;3.35;;;;;;;10.48;100.00;93375.47;1018723;29;20032;-73
2023/10/20 00:07:13;;;;;;;4.90;2.40;;;;;;;10.49;100.00;93376.22;1015529;29;20080;-73
2023/10/20 00:07:43;;;;;;;3.22;2.60;;;;;;;10.43;100.00;93367.81;1015298;29;20521;-72
2023/10/20 00:08:14;;;;;;;2.60;2.00;;;;;;;10.45;100.00;93373.47;1008917;29;20041;-72
2023/10/20 00:08:45;;;;;;;2.13;1.25;;;;;;;10.47;100.00;93384.44;1019161;29;20036;-72
2023/10/20 00:09:15;;;;;;;2.50;2.30;;;;;;;10.48;100.00;93380.72;1019197;29;20158;-72
2023/10/20 00:09:46;;;;;;;1.83;1.67;;;;;;;10.46;100.00;93380.28;1023236;28;20035;-72
2023/10/20 00:10:17;;;;;;;4.10;2.58;;;;;;;10.47;100.00;93379.19;1023067;29;20835;-73
2023/10/20 00:10:48;;;;;;;3.10;2.28;;;;;;;10.47;100.00;93383.66;1015465;29;20036;-73
2023/10/20 00:11:18;;;;;;;4.20;3.10;;;;;;;10.47;100.00;93378.41;1019160;29;20275;-71
2023/10/20 00:11:51;;;;;;;2.78;2.58;;;;;;;10.46;100.00;93377.66;1011446;29;20048;-72
2023/10/20 00:12:21;;;;;;;6.45;3.92;;;;;;;10.46;100.00;93372.41;1011459;29;20420;-73
2023/10/20 00:12:52;;;;;;;1.83;1.63;;;;;;;10.42;100.00;93360.25;1018500;29;20354;-72
2023/10/20 00:13:22;;;;;;;3.42;2.72;;;;;;;10.47;100.00;93362.69;1023096;29;20099;-72
2023/10/20 00:13:53;;;;;;;3.88;3.03;;;;;;;10.47;100.00;93355.59;1011320;29;20031;-72
2023/10/20 00:14:23;;;;;;;1.95;1.85;;;;;;;10.43;100.00;93352.06;1015153;29;20042;-72
2023/10/20 00:14:54;;;;;;;3.03;2.75;;;;;;;10.48;100.00;93348.50;1015537;29;20063;-75
2023/10/20 00:15:25;;;;;;;2.45;2.30;;;;;;;10.44;100.00;93345.75;1019193;29;20397;-72
2023/10/20 00:15:55;;;;;;;3.53;3.22;;;;;;;10.47;100.00;93349.59;1015335;29;20032;-71
2023/10/20 00:16:27;;;;;;;2.63;2.17;;;;;;;10.43;100.00;93344.22;1011506;29;20284;-74
2023/10/20 00:16:57;;;;;;;3.15;2.95;;;;;;;10.48;100.00;93349.25;1022095;29;20122;-73
2023/10/20 00:17:27;;;;;;;2.28;2.13;;;;;;;10.48;100.00;93349.25;1019233;29;20344;-74
2023/10/20 00:17:58;;;;;;;2.63;2.42;;;;;;;10.41;100.00;93343.00;1015270;29;20040;-72
2023/10/20 00:18:28;;;;;;;2.78;2.30;;;;;;;10.35;100.00;93331.91;1023050;28;20031;-72
2023/10/20 00:19:01;;;;;;;1.30;1.25;;;;;;;10.49;100.00;93345.53;1026923;28;20033;-74
2023/10/20 00:19:31;;;;;;;1.00;1.00;;;;;;;10.49;100.00;93345.53;1022912;29;20122;-74
2023/10/20 00:20:02;;;;;;;2.88;2.58;;;;;;;10.50;100.00;93343.69;1019101;29;20761;-74
2023/10/20 00:20:32;;;;;;;1.80;1.67;;;;;;;10.48;100.00;93344.00;1019565;29;20130;-74
2023/10/20 00:21:03;;;;;;;3.95;1.55;;;;;;;10.47;100.00;93345.09;1023473;28;20489;-72
2023/10/20 00:21:35;;;;;;;7.38;2.60;;;;;;;10.46;100.00;93345.41;1027108;28;20035;-74
2023/10/20 00:22:06;;;;;;;2.42;2.08;;;;;;;10.48;100.00;93343.25;1015072;29;20288;-72
2023/10/20 00:22:36;;;;;;;3.95;2.60;;;;;;;10.46;100.00;93346.19;1015113;29;20291;-74
2023/10/20 00:23:07;;;;;;;3.42;3.20;;;;;;;10.48;100.00;93343.25;1018579;29;20035;-72
2023/10/20 00:23:37;;;;;;;4.53;2.65;;;;;;;10.49;100.00;93350.00;1023575;28;20046;-73
2023/10/20 00:24:08;;;;;;;5.05;3.35;;;;;;;10.49;100.00;93350.00;1027111;28;20035;-74
2023/10/20 00:24:38;;;;;;;2.88;2.47;;;;;;;10.48;100.00;93349.25;1026981;28;20050;-74
2023/10/20 00:25:11;;;;;;;2.50;2.28;;;;;;;10.47;100.00;93344.34;1023015;29;20663;-74
2023/10/20 00:25:42;;;;;;;2.03;1.83;;;;;;;10.44;100.00;93348.38;1023368;28;20095;-74
2023/10/20 00:26:13;;;;;;;3.70;2.05;;;;;;;10.45;100.00;93344.66;1019366;29;20322;-75
2023/10/20 00:26:43;;;;;;;1.98;1.88;;;;;;;10.48;100.00;93345.88;1018761;29;20072;-73
2023/10/20 00:27:14;;;;;;;4.63;1.42;;;;;;;10.46;100.00;93346.19;1022564;29;20287;-73
2023/10/20 00:27:45;;;;;;;5.97;4.00;;;;;;;10.45;100.00;93347.25;1023341;28;20030;-73
2023/10/20 00:28:15;;;;;;;4.50;2.67;;;;;;;10.46;100.00;93340.97;1022918;29;20039;-73
2023/10/20 00:28:46;;;;;;;4.50;3.63;;;;;;;10.45;100.00;93344.66;1019036;29;20594;-73
2023/10/20 00:29:16;;;;;;;2.83;1.98;;;;;;;10.48;100.00;93338.75;1023106;29;20042;-74
2023/10/20 00:29:47;;;;;;;3.90;2.30;;;;;;;10.41;100.00;93333.28;1019395;28;20039;-73
2023/10/20 00:30:17;;;;;;;3.55;2.90;;;;;;;10.48;100.00;93343.25;1018999;29;20592;-73
2023/10/20 00:30:48;;;;;;;2.60;2.40;;;;;;;10.45;100.00;93334.16;1011404;29;20058;-73
2023/10/20 00:31:18;;;;;;;3.47;2.53;;;;;;;10.42;100.00;93329.56;1011312;29;20040;-74
2023/10/20 00:31:48;;;;;;;3.13;2.03;;;;;;;10.44;100.00;93340.50;1022932;29;20027;-73
2023/10/20 00:32:19;;;;;;;5.03;2.17;;;;;;;10.43;100.00;93331.09;1015043;29;20028;-73
2023/10/20 00:32:49;;;;;;;3.55;2.17;;;;;;;10.42;100.00;93324.31;1014582;29;20040;-72
2023/10/20 00:33:20;;;;;;;1.85;1.75;;;;;;;10.43;100.00;93322.44;1019114;29;20043;-73
2023/10/20 00:33:50;;;;;;;4.60;3.03;;;;;;;10.43;100.00;93331.09;1016936;29;20024;-73
2023/10/20 00:34:21;;;;;;;2.72;2.40;;;;;;;10.38;100.00;93324.19;1021066;28;20035;-74
2023/10/20 00:34:52;;;;;;;6.18;2.13;;;;;;;10.43;100.00;93330.31;1022880;29;20023;-73
2023/10/20 00:35:22;;;;;;;5.43;3.33;;;;;;;10.41;100.00;93322.03;1019827;28;20028;-74
2023/10/20 00:35:53;;;;;;;3.15;1.98;;;;;;;10.42;100.00;93324.31;1023383;28;20334;-73
2023/10/20 00:36:23;;;;;;;3.97;3.15;;;;;;;10.42;100.00;93321.69;1031152;28;20034;-74
2023/10/20 00:36:54;;;;;;;7.00;2.83;;;;;;;10.37;100.00;93311.41;1030967;28;20392;-73
2023/10/20 00:37:24;;;;;;;2.13;1.80;;;;;;;10.41;100.00;93322.03;1029872;28;20075;-74
2023/10/20 00:37:56;;;;;;;5.05;3.88;;;;;;;10.41;100.00;93317.53;1022757;29;20023;-73
2023/10/20 00:38:26;;;;;;;1.95;1.80;;;;;;;10.35;100.00;93308.34;1019172;29;20631;-74
2023/10/20 00:38:57;;;;;;;4.45;3.55;;;;;;;10.33;100.00;93305.28;1018799;29;20307;-73
2023/10/20 00:39:27;;;;;;;3.65;2.08;;;;;;;10.35;100.00;93310.94;1011512;29;20035;-73
2023/10/20 00:39:58;;;;;;;2.35;2.22;;;;;;;10.37;100.00;93308.78;1008879;29;20033;-72
2023/10/20 00:40:28;;;;;;;3.20;2.40;;;;;;;10.38;100.00;93305.06;1014231;29;20486;-74
2023/10/20 00:40:59;;;;;;;2.75;2.00;;;;;;;10.37;100.00;93312.16;1007549;29;20025;-73
2023/10/20 00:41:29;;;;;;;4.85;3.33;;;;;;;10.37;100.00;93311.41;1011413;29;20060;-73
2023/10/20 00:42:00;;;;;;;2.80;2.50;;;;;;;10.37;100.00;93311.41;1011389;29;20033;-73
2023/10/20 00:42:30;;;;;;;3.22;2.65;;;;;;;10.37;100.00;93311.41;1015096;29;20545;-73
2023/10/20 00:43:01;;;;;;;3.10;2.05;;;;;;;10.38;100.00;93311.06;1018742;29;20039;-74
2023/10/20 00:43:35;;;;;;;1.60;1.50;;;;;;;10.36;100.00;93309.84;1019117;29;20028;-72
2023/10/20 00:44:06;;;;;;;3.05;2.13;;;;;;;10.31;100.00;93299.59;1022784;29;20027;-73
2023/10/20 00:44:36;;;;;;;2.72;2.53;;;;;;;10.34;100.00;93307.56;1019116;29;20306;-71
2023/10/20 00:45:08;;;;;;;4.22;3.83;;;;;;;10.36;100.00;93302.00;1015015;29;20033;-72
2023/10/20 00:45:40;;;;;;;2.22;1.80;;;;;;;10.33;100.00;93295.56;1016387;29;20584;-72
2023/10/20 00:46:10;;;;;;;2.65;1.98;;;;;;;10.28;100.00;93287.88;1011127;29;20311;-72
2023/10/20 00:46:43;;;;;;;3.80;3.45;;;;;;;10.34;100.00;93291.84;1008541;29;20821;-72
2023/10/20 00:47:14;;;;;;;3.67;3.33;;;;;;;10.36;100.00;93294.13;1014171;29;20039;-72
2023/10/20 00:47:45;;;;;;;2.00;1.80;;;;;;;10.35;100.00;93290.75;1011752;29;20628;-74
2023/10/20 00:48:15;;;;;;;1.95;1.83;;;;;;;10.35;100.00;93290.75;1015003;29;20275;-74
2023/10/20 00:48:46;;;;;;;6.22;4.05;;;;;;;10.34;100.00;93291.06;1015134;29;20039;-74
2023/10/20 00:49:16;;;;;;;2.28;2.15;;;;;;;10.36;100.00;93289.69;1018280;29;20024;-73
2023/10/20 00:49:47;;;;;;;3.17;2.60;;;;;;;10.36;100.00;93284.44;1018955;29;20034;-74
2023/10/20 00:50:17;;;;;;;1.58;1.35;;;;;;;10.36;100.00;93279.19;1015187;29;20059;-74
2023/10/20 00:50:48;;;;;;;3.15;2.95;;;;;;;10.34;100.00;93277.97;1017255;29;20031;-75
2023/10/20 00:51:18;;;;;;;5.03;4.32;;;;;;;10.36;100.00;93278.41;1019150;29;20034;-73
2023/10/20 00:51:49;;;;;;;4.88;2.88;;;;;;;10.32;100.00;93277.50;1015116;29;20023;-73
2023/10/20 00:52:19;;;;;;;10.52;3.20;;;;;;;10.38;100.00;93278.84;1015170;29;20083;-73
2023/10/20 00:52:49;;;;;;;2.97;2.03;;;;;;;10.37;100.00;93279.97;1018489;29;20333;-73
2023/10/20 00:53:22;;;;;;;2.55;2.22;;;;;;;10.35;100.00;93274.25;1019034;29;20030;-74
2023/10/20 00:53:52;;;;;;;2.40;2.20;;;;;;;10.33;100.00;93271.22;1015061;29;20054;-73
2023/10/20 00:54:23;;;;;;;5.88;2.40;;;;;;;10.40;100.00;93273.31;1018759;29;20263;-74
2023/10/20 00:54:53;;;;;;;2.67;1.77;;;;;;;10.38;100.00;93273.63;1014851;29;20017;-73
2023/10/20 00:55:24;;;;;;;4.25;3.25;;;;;;;10.35;100.00;93266.38;1015142;29;20024;-73
2023/10/20 00:55:57;;;;;;;2.80;2.58;;;;;;;10.38;100.00;93265.75;1017961;29;20027;-73
2023/10/20 00:56:29;;;;;;;2.08;1.60;;;;;;;10.38;100.00;93277.00;1014795;29;20026;-72
2023/10/20 00:56:59;;;;;;;3.50;3.13;;;;;;;10.37;100.00;93269.47;1015055;29;20272;-71
2023/10/20 00:57:30;;;;;;;2.47;2.28;;;;;;;10.35;100.00;93261.91;1016100;29;20264;-74
2023/10/20 00:58:00;;;;;;;2.78;2.15;;;;;;;10.33;100.00;93263.34;1015201;29;20096;-71
2023/10/20 00:58:31;;;;;;;3.38;3.08;;;;;;;10.33;100.00;93258.88;1018958;29;20031;-74
2023/10/20 00:59:02;;;;;;;2.90;2.40;;;;;;;10.38;100.00;93265.75;1019187;29;20024;-74
2023/10/20 00:59:32;;;;;;;2.38;2.17;;;;;;;10.36;100.00;93257.44;1019297;28;20027;-74
2023/10/20 01:00:04;;;;;;;2.92;2.58;;;;;;;10.36;100.00;93262.69;1026977;28;20266;-74
2023/10/20 01:00:34;;;;;;;5.03;2.40;;;;;;;10.36;100.00;93257.44;1026887;28;20019;-73
2023/10/20 01:01:05;;;;;;;6.53;4.35;;;;;;;10.32;100.00;93251.31;1019015;29;20268;-72
2023/10/20 01:01:36;;;;;;;6.13;3.53;;;;;;;10.35;100.00;93259.28;1018878;29;20027;-74
2023/10/20 01:02:06;;;;;;;4.32;2.42;;;;;;;10.37;100.00;93258.97;1018985;29;20055;-74
2023/10/20 01:02:36;;;;;;;3.97;2.75;;;;;;;10.33;100.00;93252.84;1019044;28;20036;-74
2023/10/20 01:03:07;;;;;;;2.35;2.15;;;;;;;10.33;100.00;93245.75;1022158;29;20106;-73
2023/10/20 01:03:37;;;;;;;4.38;2.95;;;;;;;10.33;100.00;93247.63;1019017;29;20516;-74
2023/10/20 01:04:08;;;;;;;3.42;2.03;;;;;;;10.35;100.00;93248.81;1015015;29;20514;-74
2023/10/20 01:04:38;;;;;;;2.60;2.17;;;;;;;10.31;100.00;93250.53;1014923;29;20599;-73
2023/10/20 01:05:09;;;;;;;4.03;3.50;;;;;;;10.31;100.00;93236.69;1015063;29;20039;-74
2023/10/20 01:05:40;;;;;;;2.65;2.40;;;;;;;10.33;100.00;93243.13;1022987;29;20740;-73
2023/10/20 01:06:10;;;;;;;3.25;2.55;;;;;;;10.34;100.00;93241.28;1018903;29;20279;-74
2023/10/20 01:06:43;;;;;;;6.28;5.40;;;;;;;10.34;100.00;93243.91;1018821;29;20035;-73
2023/10/20 01:07:14;;;;;;;2.80;2.08;;;;;;;10.39;100.00;93246.31;1011209;29;20188;-74
2023/10/20 01:07:45;;;;;;;3.28;3.03;;;;;;;10.36;100.00;93246.94;1011767;29;20953;-73
2023/10/20 01:08:15;;;;;;;3.67;3.33;;;;;;;10.37;100.00;93246.63;1015906;29;20268;-73
2023/10/20 01:08:46;;;;;;;2.60;2.50;;;;;;;10.37;100.00;93240.63;1019346;29;20410;-73
2023/10/20 01:09:24;;;;;;;4.45;3.50;;;;;;;10.37;100.00;93245.88;1022795;29;20031;-75
2023/10/20 01:09:59;;;;;;;5.72;3.80;;;;;;;10.32;100.00;93235.56;1018729;29;20098;-72
2023/10/20 01:10:29;;;;;;;4.20;3.17;;;;;;;10.32;100.00;93240.81;1024631;28;20259;-73
2023/10/20 01:11:00;;;;;;;1.52;1.42;;;;;;;10.36;100.00;93241.69;1022487;28;20363;-72
2023/10/20 01:11:30;;;;;;;1.60;1.30;;;;;;;10.36;100.00;93246.94;1019442;29;20027;-73
2023/10/20 01:12:01;;;;;;;1.98;1.83;;;;;;;10.23;100.00;93227.78;1024055;28;20028;-71
2023/10/20 01:12:32;;;;;;;5.13;2.78;;;;;;;10.39;100.00;93251.53;1018907;29;20039;-73
2023/10/20 01:13:02;;;;;;;2.80;2.58;;;;;;;10.34;100.00;93238.66;1018369;29;20499;-74
2023/10/20 01:13:33;;;;;;;3.10;2.80;;;;;;;10.39;100.00;93246.31;1022004;29;20357;-74
2023/10/20 01:14:03;;;;;;;2.75;2.53;;;;;;;10.36;100.00;93246.94;1021257;29;20038;-72
2023/10/20 01:14:35;;;;;;;3.13;2.42;;;;;;;10.33;100.00;93245.00;1018982;29;20039;-74
2023/10/20 01:15:06;;;;;;;2.88;2.67;;;;;;;10.33;100.00;93240.50;1012713;29;20032;-74
2023/10/20 01:15:37;;;;;;;3.15;2.88;;;;;;;10.32;100.00;93251.31;1014953;29;20276;-74
2023/10/20 01:16:07;;;;;;;7.72;3.72;;;;;;;10.37;100.00;93256.38;1015065;29;20268;-73
2023/10/20 01:16:38;;;;;;;2.75;2.53;;;;;;;10.37;100.00;93253.75;1018895;29;20031;-73
2023/10/20 01:17:10;;;;;;;2.38;1.88;;;;;;;10.38;100.00;93256.03;1018831;29;20040;-73
2023/10/20 01:17:40;;;;;;;3.97;2.40;;;;;;;10.37;100.00;93253.75;1019224;29;20402;-74
2023/10/20 01:18:11;;;;;;;7.40;3.28;;;;;;;10.35;100.00;93251.44;1011014;29;20276;-74
2023/10/20 01:18:42;;;;;;;5.97;4.15;;;;;;;10.39;100.00;93254.16;1014977;29;20032;-72
2023/10/20 01:19:12;;;;;;;8.98;3.50;;;;;;;10.37;100.00;93254.50;1018757;29;20462;-75
2023/10/20 01:19:44;;;;;;;4.13;3.45;;;;;;;10.40;100.00;93252.34;1019031;29;20122;-73
2023/10/20 01:20:14;;;;;;;3.72;2.78;;;;;;;10.34;100.00;93252.53;1022495;29;20054;-74
2023/10/20 01:20:45;;;;;;;3.92;3.00;;;;;;;10.30;100.00;93246.41;1022741;29;20263;-73
2023/10/20 01:21:15;;;;;;;3.33;3.03;;;;;;;10.34;100.00;93249.13;1018847;29;20042;-73
2023/10/20 01:21:46;;;;;;;2.72;1.77;;;;;;;10.36;100.00;93247.75;1007912;29;20091;-73
2023/10/20 01:22:17;;;;;;;2.47;2.25;;;;;;;10.35;100.00;93242.81;1003295;29;20041;-73
2023/10/20 01:22:47;;;;;;;3.50;3.20;;;;;;;10.36;100.00;93241.69;1018306;29;20327;-74
2023/10/20 01:23:18;;;;;;;2.17;2.00;;;;;;;10.35;100.00;93234.94;1019379;28;20040;-74
2023/10/20 01:23:52;;;;;;;2.10;2.00;;;;;;;10.33;100.00;93227.41;1019076;29;20024;-74
2023/10/20 01:24:22;;;;;;;3.67;3.33;;;;;;;10.33;100.00;93216.16;1013983;29;20024;-72
2023/10/20 01:24:52;;;;;;;4.03;3.63;;;;;;;10.35;100.00;93225.22;1011155;29;20286;-74
2023/10/20 01:25:23;;;;;;;2.30;2.00;;;;;;;10.35;100.00;93219.22;1016564;29;20082;-74
2023/10/20 01:25:56;;;;;;;2.25;2.10;;;;;;;10.33;100.00;93227.41;1018877;28;20034;-74
2023/10/20 01:26:26;;;;;;;2.05;1.95;;;;;;;10.24;100.00;93212.81;1026433;28;20094;-74
2023/10/20 01:26:57;;;;;;;3.25;2.83;;;;;;;10.34;100.00;93226.31;1022730;29;20346;-74
2023/10/20 01:27:27;;;;;;;3.85;3.53;;;;;;;10.34;100.00;93228.94;1018801;29;20035;-73
2023/10/20 01:27:58;;;;;;;4.00;3.17;;;;;;;10.34;100.00;93233.41;1022529;29;20091;-74
2023/10/20 01:28:28;;;;;;;4.25;2.90;;;;;;;10.33;100.00;93226.66;1018962;28;20100;-72
2023/10/20 01:28:59;;;;;;;2.33;1.60;;;;;;;10.34;100.00;93233.41;1015103;29;20061;-73
2023/10/20 01:29:31;;;;;;;7.40;3.13;;;;;;;10.28;100.00;93224.22;1014874;29;20052;-73
2023/10/20 01:30:02;;;;;;;3.78;3.53;;;;;;;10.29;100.00;93230.97;1010968;29;20044;-75
2023/10/20 01:30:32;;;;;;;4.57;2.85;;;;;;;10.34;100.00;93243.91;1010240;29;20273;-74
2023/10/20 01:31:03;;;;;;;2.33;1.63;;;;;;;10.32;100.00;93235.56;1015434;29;20035;-73
2023/10/20 01:31:33;;;;;;;2.47;2.38;;;;;;;10.27;100.00;93227.94;1018530;29;20023;-74
2023/10/20 01:32:04;;;;;;;4.00;3.65;;;;;;;10.32;100.00;93230.34;1016533;28;20264;-73
2023/10/20 01:32:35;;;;;;;1.73;1.63;;;;;;;10.34;100.00;93226.31;1018819;29;20123;-73
2023/10/20 01:33:05;;;;;;;4.70;3.70;;;;;;;10.30;100.00;93227.28;1018428;29;20019;-73
2023/10/20 01:33:36;;;;;;;4.72;3.20;;;;;;;10.27;100.00;93220.81;1022736;29;20075;-74
2023/10/20 01:34:06;;;;;;;7.28;3.17;;;;;;;10.31;100.00;93223.56;1022872;28;20019;-71
2023/10/20 01:34:37;;;;;;;2.75;2.50;;;;;;;10.29;100.00;93221.25;1022751;28;20023;-73
2023/10/20 01:35:07;;;;;;;1.63;1.52;;;;;;;10.30;100.00;93219.44;1022742;29;20843;-74
2023/10/20 01:35:38;;;;;;;3.55;3.22;;;;;;;10.27;100.00;93209.59;1014826;29;20046;-74
2023/10/20 01:36:08;;;;;;;4.30;3.17;;;;;;;10.25;100.00;93206.47;1015047;29;20713;-73
2023/10/20 01:36:39;;;;;;;3.75;2.80;;;;;;;10.25;100.00;93211.72;1015044;29;20024;-74
2023/10/20 01:37:11;;;;;;;4.97;2.38;;;;;;;10.25;100.00;93212.47;1016447;29;20076;-74
2023/10/20 01:37:42;;;;;;;3.75;3.20;;;;;;;10.18;100.00;93201.75;1018888;29;20468;-73
2023/10/20 01:38:13;;;;;;;2.65;2.42;;;;;;;10.13;100.00;93197.50;1018861;29;20298;-73
2023/10/20 01:38:44;;;;;;;2.83;2.45;;;;;;;10.25;100.00;93209.09;1018256;29;20024;-74
2023/10/20 01:39:15;;;;;;;3.22;3.00;;;;;;;10.25;100.00;93209.09;1015388;29;20020;-74
2023/10/20 01:39:47;;;;;;;5.45;2.05;;;;;;;10.21;100.00;93202.97;1018892;29;21257;-73
2023/10/20 01:40:19;;;;;;;2.28;2.15;;;;;;;10.21;100.00;93202.97;1023298;28;20671;-74
2023/10/20 01:40:49;;;;;;;3.00;1.95;;;;;;;10.12;100.00;93188.06;1026619;28;20290;-73
2023/10/20 01:41:20;;;;;;;2.10;1.80;;;;;;;10.20;100.00;93196.22;1022765;29;20744;-74
2023/10/20 01:41:50;;;;;;;1.77;1.38;;;;;;;10.19;100.00;93195.41;1022344;29;20023;-74
2023/10/20 01:42:21;;;;;;;2.25;2.05;;;;;;;10.13;100.00;93186.25;1022416;29;20026;-74
2023/10/20 01:42:52;;;;;;;2.97;2.78;;;;;;;10.18;100.00;93188.66;1014476;29;20024;-73
2023/10/20 01:43:22;;;;;;;4.88;3.95;;;;;;;10.13;100.00;93184.38;1018879;29;20203;-74
2023/10/20 01:43:53;;;;;;;4.32;2.60;;;;;;;10.15;100.00;93179.56;1014862;29;20906;-74
2023/10/20 01:44:23;;;;;;;3.20;2.70;;;;;;;10.18;100.00;93180.03;1010440;29;20458;-74
2023/10/20 01:44:54;;;;;;;3.15;2.33;;;;;;;10.19;100.00;93178.94;1007117;29;20077;-74
2023/10/20 01:45:24;;;;;;;2.97;2.78;;;;;;;10.19;100.00;93179.69;1018628;29;20024;-73
2023/10/20 01:45:55;;;;;;;4.03;3.15;;;;;;;10.21;100.00;93179.38;1018873;29;20023;-73
2023/10/20 01:46:25;;;;;;;2.42;1.98;;;;;;;10.21;100.00;93176.78;1022664;28;20027;-74
2023/10/20 01:46:56;;;;;;;2.10;1.05;;;;;;;10.13;100.00;93171.28;1018957;29;20027;-73
2023/10/20 01:47:27;;;;;;;2.55;2.15;;;;;;;10.19;100.00;93178.94;1017862;29;20036;-74
2023/10/20 01:47:57;;;;;;;13.70;3.92;;;;;;;10.13;100.00;93173.16;1018996;29;20035;-74
2023/10/20 01:48:28;;;;;;;3.80;3.50;;;;;;;10.14;100.00;93185.91;1018854;29;20270;-75
2023/10/20 01:48:58;;;;;;;5.13;3.33;;;;;;;10.17;100.00;93179.28;1009434;29;20039;-74
2023/10/20 01:49:28;;;;;;;5.22;2.65;;;;;;;10.17;100.00;93178.50;1003465;29;20033;-74
2023/10/20 01:50:00;;;;;;;1.88;1.77;;;;;;;10.17;100.00;93181.88;1011964;29;20705;-74
2023/10/20 01:50:30;;;;;;;2.55;2.35;;;;;;;10.12;100.00;93174.97;1018861;29;20036;-74
2023/10/20 01:51:00;;;;;;;3.97;2.95;;;;;;;10.08;100.00;93166.25;1026082;28;20274;-74
2023/10/20 01:51:31;;;;;;;3.58;2.58;;;;;;;10.14;100.00;93175.44;1022333;28;20035;-74
2023/10/20 01:52:02;;;;;;;2.47;2.28;;;;;;;10.14;100.00;93174.66;1022315;29;20028;-74
2023/10/20 01:52:32;;;;;;;2.63;1.98;;;;;;;10.14;100.00;93167.56;1022363;29;20124;-74
2023/10/20 01:53:04;;;;;;;5.85;3.25;;;;;;;10.11;100.00;93159.59;1018086;29;20027;-74
2023/10/20 01:53:34;;;;;;;3.22;2.35;;;;;;;10.12;100.00;93163.72;1011598;29;20064;-73
2023/10/20 01:54:06;;;;;;;5.50;2.92;;;;;;;10.11;100.00;93162.97;1022344;28;20309;-74
2023/10/20 01:54:36;;;;;;;4.45;2.70;;;;;;;10.08;100.00;93158.38;1022649;29;20023;-74
2023/10/20 01:55:08;;;;;;;6.28;3.80;;;;;;;10.11;100.00;93160.34;1026741;28;20278;-74
2023/10/20 01:55:40;;;;;;;2.75;2.55;;;;;;;10.12;100.00;93161.88;1018810;29;20027;-73
2023/10/20 01:56:10;;;;;;;1.60;1.50;;;;;;;10.13;100.00;93160.06;1021479;29;20345;-73
2023/10/20 01:56:41;;;;;;;3.83;3.47;;;;;;;10.13;100.00;93158.19;1018365;29;20378;-74
2023/10/20 01:57:11;;;;;;;5.68;3.13;;;;;;;10.12;100.00;93161.88;1015349;29;20035;-74
2023/10/20 01:57:41;;;;;;;4.43;3.58;;;;;;;10.13;100.00;93152.94;1019056;29;20043;-74
2023/10/20 01:58:12;;;;;;;3.20;2.38;;;;;;;10.13;100.00;93160.06;1015036;29;20667;-74
2023/10/20 01:58:42;;;;;;;4.40;4.00;;;;;;;10.06;100.00;93150.09;1014918;29;20121;-73
2023/10/20 01:59:13;;;;;;;3.25;2.38;;;;;;;10.14;100.00;93158.94;1014742;29;20405;-74
2023/10/20 01:59:43;;;;;;;2.97;2.53;;;;;;;10.10;100.00;93152.81;1018910;28;20023;-72
2023/10/20 02:00:15;;;;;;;2.95;2.60;;;;;;;10.13;100.00;93160.06;1026843;28;20082;-72
2023/10/20 02:00:52;;;;;;;5.20;2.80;;;;;;;10.13;100.00;93154.81;1022873;29;20023;-73
2023/10/20 02:01:22;;;;;;;4.13;3.35;;;;;;;10.14;100.00;93157.09;1021496;29;20815;-73
2023/10/20 02:01:53;;;;;;;3.60;3.20;;;;;;;10.13;100.00;93160.06;1014745;29;20280;-72
2023/10/20 02:02:23;;;;;;;2.58;2.28;;;;;;;10.07;100.00;93149.00;1014679;29;20024;-72
2023/10/20 02:02:54;;;;;;;5.63;4.55;;;;;;;10.10;100.00;93153.59;1006578;29;20045;-72
2023/10/20 02:03:24;;;;;;;3.20;2.08;;;;;;;10.13;100.00;93155.56;1010478;29;20036;-72
2023/10/20 02:03:55;;;;;;;3.83;2.25;;;;;;;10.10;100.00;93150.97;1014890;29;20096;-73
2023/10/20 02:04:25;;;;;;;5.57;3.53;;;;;;;10.17;100.00;93162.78;1010972;29;20028;-74
2023/10/20 02:04:56;;;;;;;2.05;1.95;;;;;;;10.15;100.00;93158.63;1010685;29;20544;-74
2023/10/20 02:05:26;;;;;;;4.68;4.20;;;;;;;10.16;100.00;93159.41;1010928;29;20040;-74
2023/10/20 02:05:57;;;;;;;4.30;2.05;;;;;;;10.14;100.00;93157.09;1014900;29;20024;-74
2023/10/20 02:06:27;;;;;;;2.80;2.20;;;;;;;10.15;100.00;93153.38;1017091;29;20100;-72
2023/10/20 02:06:57;;;;;;;5.55;2.00;;;;;;;10.18;100.00;93156.44;1026629;28;20404;-73
2023/10/20 02:07:28;;;;;;;2.55;2.33;;;;;;;10.15;100.00;93152.63;1022769;28;20031;-73
2023/10/20 02:07:58;;;;;;;3.72;2.42;;;;;;;10.07;100.00;93143.00;1026844;28;20015;-72
2023/10/20 02:08:29;;;;;;;3.15;2.80;;;;;;;10.09;100.00;93138.97;1021967;29;20023;-72
2023/10/20 02:08:59;;;;;;;5.93;4.63;;;;;;;10.13;100.00;93149.56;1014645;29;20020;-73
2023/10/20 02:09:31;;;;;;;3.72;2.78;;;;;;;10.08;100.00;93141.91;1014640;29;20046;-73
2023/10/20 02:10:02;;;;;;;5.40;2.63;;;;;;;10.11;100.00;93136.78;1022675;29;20571;-74
2023/10/20 02:10:32;;;;;;;6.47;3.83;;;;;;;10.06;100.00;93129.13;1022761;29;20270;-73
2023/10/20 02:11:02;;;;;;;1.67;1.60;;;;;;;10.08;100.00;93137.41;1015235;29;20036;-74
2023/10/20 02:11:33;;;;;;;2.83;2.47;;;;;;;10.07;100.00;93133.28;1018215;29;20031;-73
2023/10/20 02:12:04;;;;;;;6.00;3.05;;;;;;;10.08;100.00;93132.19;1014852;29;20039;-74
2023/10/20 02:12:34;;;;;;;9.98;3.38;;;;;;;10.08;100.00;93124.31;1018842;29;20082;-73
2023/10/20 02:13:05;;;;;;;5.82;3.28;;;;;;;10.10;100.00;93130.00;1022305;28;20373;-73
2023/10/20 02:13:36;;;;;;;2.72;2.05;;;;;;;10.05;100.00;93116.34;1022362;29;20054;-73
2023/10/20 02:14:08;;;;;;;3.05;2.85;;;;;;;10.10;100.00;93116.91;1014868;29;20490;-74
2023/10/20 02:14:38;;;;;;;2.53;2.33;;;;;;;10.10;100.00;93119.53;1014979;29;20279;-74
2023/10/20 02:15:09;;;;;;;3.13;1.63;;;;;;;10.10;100.00;93122.16;1010735;29;20280;-74
2023/10/20 02:15:45;;;;;;;3.45;3.10;;;;;;;10.10;100.00;93122.16;1003565;29;20041;-73
2023/10/20 02:16:16;;;;;;;4.82;2.75;;;;;;;10.06;100.00;93117.88;1007193;29;20131;-74
2023/10/20 02:16:46;;;;;;;2.83;2.63;;;;;;;10.08;100.00;93118.31;1016385;29;20363;-72
2023/10/20 02:17:17;;;;;;;2.00;1.85;;;;;;;10.01;100.00;93103.13;1023550;28;20035;-72
2023/10/20 02:17:47;;;;;;;2.00;1.90;;;;;;;10.06;100.00;93116.03;1022674;29;20555;-74
2023/10/20 02:18:18;;;;;;;3.03;2.83;;;;;;;10.07;100.00;93109.69;1022570;29;20476;-72
2023/10/20 02:18:48;;;;;;;2.33;2.10;;;;;;;9.99;100.00;93092.19;1018824;29;20036;-72
2023/10/20 02:19:19;;;;;;;7.93;3.53;;;;;;;10.04;100.00;93107.72;1014677;29;20028;-72
2023/10/20 02:19:49;;;;;;;3.83;3.35;;;;;;;10.05;100.00;93106.63;1010814;29;20024;-72
2023/10/20 02:20:22;;;;;;;6.13;3.72;;;;;;;10.04;100.00;93099.09;1017642;29;20031;-72
2023/10/20 02:21:03;;;;;;;2.90;2.58;;;;;;;10.00;100.00;93087.75;1015717;29;20417;-73
2023/10/20 02:21:33;;;;;;;5.28;2.90;;;;;;;9.99;100.00;93081.72;1013121;29;20279;-74
2023/10/20 02:22:04;;;;;;;2.90;1.52;;;;;;;9.98;100.00;93074.94;1014043;29;20660;-73
2023/10/20 02:22:35;;;;;;;2.53;2.33;;;;;;;10.02;100.00;93081.06;1013991;29;20056;-72
2023/10/20 02:23:07;;;;;;;1.70;1.58;;;;;;;10.05;100.00;93079.66;1017839;29;20330;-72